Time;durP1;ratioP1;P1;durP2;ratioP2;P2;SDS_P1;SDS_P2;PMS_P1;PMS_P2;Temp;Humidity;BMP_temperature;BMP_pressure;BME280_temperature;BME280_humidity;BME280_pressure;Samples;Min_cycle;Max_cycle;Signal;HPM_P1;HPM_P2
2023/05/28 00:02:24;;;;;;;23.33;7.40;;;13.40;99.90;;;;;;5017806;28;20078;-34
2023/05/28 00:04:51;;;;;;;23.35;7.10;;;13.30;99.90;;;;;;5030466;28;20382;-34
2023/05/28 00:07:21;;;;;;;18.73;5.97;;;13.20;99.90;;;;;;5032041;28;20091;-34
2023/05/28 00:09:48;;;;;;;21.25;6.60;;;13.20;99.90;;;;;;5030298;28;20056;-34
2023/05/28 00:12:17;;;;;;;21.08;6.55;;;13.20;99.90;;;;;;5030188;28;20055;-33
2023/05/28 00:14:43;;;;;;;19.17;5.93;;;13.20;99.90;;;;;;5031229;28;20049;-34
2023/05/28 00:17:10;;;;;;;22.10;6.57;;;13.10;99.90;;;;;;5031022;28;20132;-34
2023/05/28 00:19:37;;;;;;;18.92;6.25;;;13.10;99.90;;;;;;5029579;28;20084;-34
2023/05/28 00:22:04;;;;;;;20.52;6.55;;;13.10;99.90;;;;;;5029292;28;20468;-33
2023/05/28 00:24:31;;;;;;;23.27;6.78;;;13.10;99.90;;;;;;5030503;28;20049;-34
2023/05/28 00:26:57;;;;;;;14.57;5.32;;;13.00;99.90;;;;;;5029455;28;20089;-34
2023/05/28 00:29:26;;;;;;;15.88;6.07;;;13.10;99.90;;;;;;5031915;28;20103;-34
2023/05/28 00:31:55;;;;;;;14.88;5.80;;;13.10;99.90;;;;;;5030343;28;20092;-34
2023/05/28 00:34:22;;;;;;;16.83;5.78;;;13.10;99.90;;;;;;5029387;28;20099;-34
2023/05/28 00:36:48;;;;;;;16.35;5.75;;;13.00;99.90;;;;;;5028624;28;20137;-35
2023/05/28 00:39:15;;;;;;;19.13;6.40;;;13.00;99.90;;;;;;5030153;28;20100;-34
2023/05/28 00:41:42;;;;;;;17.83;5.85;;;13.00;99.90;;;;;;5030291;28;20080;-32
2023/05/28 00:44:09;;;;;;;14.25;5.55;;;12.90;99.90;;;;;;5029417;28;20485;-33
2023/05/28 00:46:38;;;;;;;17.55;6.45;;;12.90;99.90;;;;;;5029045;28;20056;-34
2023/05/28 00:49:05;;;;;;;16.50;6.03;;;12.90;99.90;;;;;;5030362;28;20128;-34
2023/05/28 00:51:32;;;;;;;18.30;6.90;;;12.80;99.90;;;;;;5029406;28;20401;-33
2023/05/28 00:53:59;;;;;;;21.13;7.18;;;12.80;99.90;;;;;;5031343;28;20053;-34
2023/05/28 00:56:26;;;;;;;18.15;5.63;;;12.70;99.90;;;;;;5031000;28;20209;-33
2023/05/28 00:58:53;;;;;;;20.23;6.60;;;12.70;99.90;;;;;;5033393;28;20512;-34
2023/05/28 01:01:20;;;;;;;19.60;6.72;;;12.60;99.90;;;;;;5031139;28;20508;-34
2023/05/28 01:03:48;;;;;;;19.63;6.25;;;12.60;99.90;;;;;;5031913;28;20240;-33
2023/05/28 01:06:14;;;;;;;16.30;6.45;;;12.60;99.90;;;;;;5034295;28;20041;-33
2023/05/28 01:08:41;;;;;;;21.95;6.82;;;12.60;99.90;;;;;;5034845;28;20479;-33
2023/05/28 01:11:09;;;;;;;21.45;6.65;;;12.60;99.90;;;;;;5031917;28;20480;-35
2023/05/28 01:13:36;;;;;;;17.73;6.63;;;12.60;99.90;;;;;;5032561;28;20552;-35
2023/05/28 01:16:03;;;;;;;21.25;6.13;;;12.50;99.90;;;;;;5032233;28;20580;-33
2023/05/28 01:18:31;;;;;;;23.10;6.50;;;12.50;99.90;;;;;;5033246;28;20095;-33
2023/05/28 01:21:00;;;;;;;21.88;6.80;;;12.50;99.90;;;;;;5032471;28;20481;-34
2023/05/28 01:23:27;;;;;;;20.90;7.10;;;12.50;99.90;;;;;;5033605;28;20048;-32
2023/05/28 01:25:56;;;;;;;22.45;6.90;;;12.50;99.90;;;;;;5032387;28;20115;-33
2023/05/28 01:28:23;;;;;;;20.00;6.60;;;12.40;99.90;;;;;;5033327;28;20060;-32
2023/05/28 01:30:50;;;;;;;15.85;6.38;;;12.40;99.90;;;;;;5025924;28;20492;-33
2023/05/28 01:33:18;;;;;;;24.52;7.22;;;12.40;99.90;;;;;;5032962;28;20045;-34
2023/05/28 01:35:44;;;;;;;24.45;6.78;;;12.60;99.90;;;;;;5031012;28;20086;-34
2023/05/28 01:38:12;;;;;;;22.10;6.95;;;12.40;99.90;;;;;;5032242;28;20053;-34
2023/05/28 01:40:40;;;;;;;20.95;7.25;;;12.50;99.90;;;;;;5033641;28;20478;-35
2023/05/28 01:43:08;;;;;;;24.27;7.72;;;12.40;99.90;;;;;;5031884;28;20069;-33
2023/05/28 01:45:35;;;;;;;24.58;8.07;;;12.40;99.90;;;;;;5033710;28;20108;-33
2023/05/28 01:48:02;;;;;;;21.70;6.55;;;12.30;99.90;;;;;;5032997;28;20381;-33
2023/05/28 01:50:30;;;;;;;21.10;6.75;;;12.30;99.90;;;;;;5032854;28;20089;-34
2023/05/28 01:52:57;;;;;;;26.90;8.13;;;12.30;99.90;;;;;;5032943;28;20054;-33
2023/05/28 01:55:24;;;;;;;20.00;6.38;;;12.30;99.90;;;;;;5032745;28;20129;-35
2023/05/28 01:57:51;;;;;;;17.27;6.75;;;12.20;99.90;;;;;;5032600;28;20044;-33
2023/05/28 02:00:22;;;;;;;24.25;7.63;;;12.30;99.90;;;;;;5032740;28;20045;-33
2023/05/28 02:02:49;;;;;;;25.08;7.35;;;12.20;99.90;;;;;;5031862;28;20067;-35
2023/05/28 02:05:16;;;;;;;23.60;7.25;;;12.20;99.90;;;;;;5031816;28;20052;-34
2023/05/28 02:07:43;;;;;;;22.10;6.22;;;12.20;99.90;;;;;;5030826;28;20140;-34
2023/05/28 02:10:10;;;;;;;22.83;6.68;;;12.20;99.90;;;;;;5031605;28;20135;-33
2023/05/28 02:12:37;;;;;;;19.58;6.82;;;12.20;99.90;;;;;;5031380;28;20049;-34
2023/05/28 02:15:04;;;;;;;18.48;6.07;;;12.20;99.90;;;;;;5032278;28;20457;-33
2023/05/28 02:17:32;;;;;;;21.15;7.43;;;12.20;99.90;;;;;;5033481;28;20527;-34
2023/05/28 02:19:59;;;;;;;21.73;7.25;;;12.30;99.90;;;;;;5031655;28;20085;-34
2023/05/28 02:22:26;;;;;;;25.45;8.02;;;12.20;99.90;;;;;;5031163;28;20353;-33
2023/05/28 02:24:52;;;;;;;27.98;7.35;;;12.20;99.90;;;;;;5031387;28;20085;-34
2023/05/28 02:27:19;;;;;;;25.70;7.60;;;12.20;99.90;;;;;;5032623;28;20080;-33
2023/05/28 02:30:13;;;;;;;21.90;6.88;;;12.20;99.90;;;;;;5033504;28;20053;-33
2023/05/28 02:32:41;;;;;;;18.95;6.32;;;12.20;99.90;;;;;;5019037;28;20065;-34
2023/05/28 02:35:09;;;;;;;24.50;7.30;;;12.20;99.90;;;;;;5030870;28;20080;-34
2023/05/28 02:37:35;;;;;;;26.33;7.68;;;12.20;99.90;;;;;;5032845;28;20072;-34
2023/05/28 02:40:04;;;;;;;21.42;7.70;;;12.20;99.90;;;;;;5031436;28;20449;-33
2023/05/28 02:42:31;;;;;;;21.30;7.00;;;12.10;99.90;;;;;;5030998;28;20041;-33
2023/05/28 02:44:57;;;;;;;20.05;6.57;;;12.10;99.90;;;;;;5030274;28;20180;-33
2023/05/28 02:47:24;;;;;;;21.50;6.70;;;12.10;99.90;;;;;;5031556;28;20081;-34
2023/05/28 02:49:52;;;;;;;20.13;7.20;;;12.10;99.90;;;;;;5031524;28;20459;-34
2023/05/28 02:52:19;;;;;;;23.95;8.15;;;12.10;99.90;;;;;;5030266;28;20140;-34
2023/05/28 02:54:46;;;;;;;21.00;7.95;;;12.10;99.90;;;;;;5031956;28;20060;-34
2023/05/28 02:57:13;;;;;;;22.85;8.20;;;12.10;99.90;;;;;;5032878;28;20570;-34
2023/05/28 02:59:39;;;;;;;22.58;7.07;;;12.00;99.90;;;;;;5029498;28;20061;-34
2023/05/28 03:02:06;;;;;;;23.92;7.97;;;12.00;99.90;;;;;;5028950;28;20076;-33
2023/05/28 03:04:37;;;;;;;27.45;8.00;;;12.00;99.90;;;;;;5032761;28;20473;-34
2023/05/28 03:07:05;;;;;;;24.45;8.27;;;11.90;99.90;;;;;;5030572;28;20061;-34
2023/05/28 03:09:32;;;;;;;26.63;7.95;;;12.00;99.90;;;;;;5030798;28;20086;-34
2023/05/28 03:11:58;;;;;;;21.60;6.93;;;11.90;99.90;;;;;;5031318;28;20096;-33
2023/05/28 03:14:25;;;;;;;22.95;7.32;;;12.00;99.90;;;;;;5030310;28;20085;-34
2023/05/28 03:16:52;;;;;;;25.40;7.95;;;12.00;99.90;;;;;;5030464;28;20138;-33
2023/05/28 03:19:19;;;;;;;19.77;6.00;;;12.00;99.90;;;;;;5031825;28;20053;-33
2023/05/28 03:21:45;;;;;;;20.40;7.07;;;12.00;99.90;;;;;;5030019;28;20080;-34
2023/05/28 03:24:14;;;;;;;23.23;7.80;;;12.00;99.90;;;;;;5030281;28;20436;-34
2023/05/28 03:26:41;;;;;;;26.40;7.93;;;12.00;99.90;;;;;;5030288;28;20049;-34
2023/05/28 03:29:08;;;;;;;28.00;7.50;;;12.10;99.90;;;;;;5029988;28;20434;-34
2023/05/28 03:31:44;;;;;;;15.18;6.72;;;12.00;99.90;;;;;;5029826;28;20053;-33
2023/05/28 03:34:10;;;;;;;29.20;8.55;;;12.00;99.90;;;;;;5031612;28;20359;-33
2023/05/28 03:36:38;;;;;;;20.80;7.28;;;12.00;99.90;;;;;;5030991;28;20084;-35
2023/05/28 03:39:05;;;;;;;16.48;6.38;;;12.00;99.90;;;;;;5030766;28;20068;-34
2023/05/28 03:41:33;;;;;;;25.83;8.07;;;12.00;99.90;;;;;;5031229;28;20131;-34
2023/05/28 03:44:00;;;;;;;18.40;7.28;;;12.00;99.90;;;;;;5027111;28;20092;-34
2023/05/28 03:46:27;;;;;;;22.85;7.00;;;12.00;99.90;;;;;;5030967;28;20473;-33
2023/05/28 03:48:53;;;;;;;19.02;6.63;;;11.90;99.90;;;;;;5031290;28;20075;-34
2023/05/28 03:51:21;;;;;;;17.55;6.10;;;11.90;99.90;;;;;;5030909;28;20089;-35
2023/05/28 03:53:48;;;;;;;24.50;7.15;;;11.90;99.90;;;;;;5029811;28;20113;-34
2023/05/28 03:56:15;;;;;;;16.55;6.55;;;11.90;99.90;;;;;;5030826;28;20111;-33
2023/05/28 03:58:43;;;;;;;20.30;8.43;;;11.90;99.90;;;;;;5031008;28;20084;-34
2023/05/28 04:01:09;;;;;;;22.17;7.03;;;11.90;99.90;;;;;;5030653;28;20110;-33
2023/05/28 04:03:36;;;;;;;20.65;7.88;;;11.90;99.90;;;;;;5029829;28;20061;-33
2023/05/28 04:06:03;;;;;;;21.17;7.85;;;11.90;99.90;;;;;;5028555;28;20096;-31
2023/05/28 04:08:30;;;;;;;20.27;6.70;;;11.80;99.90;;;;;;5030840;28;20084;-33
2023/05/28 04:10:57;;;;;;;26.20;7.78;;;11.80;99.90;;;;;;5028731;28;20053;-35
2023/05/28 04:13:23;;;;;;;18.63;6.53;;;11.80;99.90;;;;;;5014977;28;20081;-35
2023/05/28 04:15:52;;;;;;;20.38;7.07;;;11.80;99.90;;;;;;5028447;28;20128;-34
2023/05/28 04:18:18;;;;;;;21.60;6.93;;;11.80;99.90;;;;;;5026527;28;20136;-35
2023/05/28 04:20:45;;;;;;;22.92;7.70;;;11.80;99.90;;;;;;5031779;28;20183;-35
2023/05/28 04:23:12;;;;;;;19.20;6.10;;;11.80;99.90;;;;;;5029983;28;20136;-35
2023/05/28 04:25:39;;;;;;;18.45;5.93;;;11.80;99.90;;;;;;5030677;28;20076;-33
2023/05/28 04:28:06;;;;;;;26.80;7.93;;;11.80;99.90;;;;;;5029550;28;20050;-33
2023/05/28 04:30:33;;;;;;;21.35;7.38;;;11.80;99.90;;;;;;5028040;28;20520;-34
2023/05/28 04:33:01;;;;;;;21.15;7.30;;;11.80;99.90;;;;;;5033487;28;20104;-32
2023/05/28 04:35:29;;;;;;;19.80;6.82;;;11.80;99.90;;;;;;5033851;28;20080;-32
2023/05/28 04:37:55;;;;;;;22.98;7.15;;;11.80;99.90;;;;;;5034765;28;20564;-34
2023/05/28 04:40:22;;;;;;;22.95;7.32;;;11.90;99.90;;;;;;5033358;28;20054;-35
2023/05/28 04:42:49;;;;;;;25.60;7.70;;;11.90;99.90;;;;;;5034185;28;20550;-34
2023/05/28 04:45:16;;;;;;;24.45;7.22;;;11.90;99.90;;;;;;5034973;28;20091;-35
2023/05/28 04:47:43;;;;;;;23.67;7.60;;;11.90;99.90;;;;;;5034713;28;20049;-34
2023/05/28 04:50:11;;;;;;;24.58;7.78;;;11.90;99.90;;;;;;5033501;28;20152;-34
2023/05/28 04:52:38;;;;;;;20.05;6.35;;;11.90;99.90;;;;;;5032267;28;20643;-33
2023/05/28 04:55:06;;;;;;;23.23;7.45;;;11.90;99.90;;;;;;5019862;28;20046;-34
2023/05/28 04:57:33;;;;;;;27.38;7.55;;;12.00;99.90;;;;;;5021684;28;20476;-34
2023/05/28 05:00:00;;;;;;;22.95;6.97;;;11.90;99.90;;;;;;5032914;28;20136;-35
2023/05/28 05:02:28;;;;;;;30.02;8.63;;;11.90;99.90;;;;;;5033541;28;20448;-32
2023/05/28 05:04:56;;;;;;;25.98;7.47;;;12.00;99.90;;;;;;5033129;28;20120;-33
2023/05/28 05:07:24;;;;;;;23.67;7.82;;;12.00;99.90;;;;;;5032976;28;20049;-34
2023/05/28 05:09:51;;;;;;;22.98;7.13;;;12.10;99.90;;;;;;5034157;28;20519;-33
2023/05/28 05:12:18;;;;;;;25.45;7.63;;;12.10;99.90;;;;;;5034799;28;20103;-34
2023/05/28 05:14:45;;;;;;;28.92;8.38;;;12.20;99.90;;;;;;5034131;28;20057;-32
2023/05/28 05:17:12;;;;;;;22.40;7.22;;;12.30;99.90;;;;;;5039586;28;20049;-34
2023/05/28 05:19:39;;;;;;;27.40;7.63;;;12.30;99.90;;;;;;5031981;28;20041;-34
2023/05/28 05:22:06;;;;;;;20.27;7.97;;;12.40;99.90;;;;;;5033290;28;20129;-33
2023/05/28 05:24:34;;;;;;;20.48;6.75;;;12.50;99.90;;;;;;5032093;28;20396;-34
2023/05/28 05:27:02;;;;;;;28.98;7.53;;;12.60;99.90;;;;;;5026582;28;20103;-34
2023/05/28 05:29:28;;;;;;;23.25;6.90;;;12.60;99.90;;;;;;5031416;28;20052;-34
2023/05/28 05:31:56;;;;;;;25.13;7.28;;;12.70;99.90;;;;;;5026090;28;20077;-33
2023/05/28 05:34:23;;;;;;;23.00;7.47;;;12.80;99.90;;;;;;5033639;28;20061;-34
2023/05/28 05:36:50;;;;;;;23.83;7.43;;;12.90;99.90;;;;;;5032387;28;20140;-34
2023/05/28 05:39:16;;;;;;;23.27;7.97;;;13.00;99.90;;;;;;5031586;28;20054;-33
2023/05/28 05:41:44;;;;;;;23.20;7.65;;;13.20;99.90;;;;;;5029934;28;20152;-35
2023/05/28 05:44:11;;;;;;;22.27;7.07;;;13.30;99.90;;;;;;5032730;28;20472;-34
2023/05/28 05:46:38;;;;;;;17.00;7.10;;;13.40;99.90;;;;;;5028360;28;20092;-34
2023/05/28 05:49:05;;;;;;;20.13;6.68;;;13.50;99.90;;;;;;5031992;28;20492;-35
2023/05/28 05:51:32;;;;;;;27.50;7.18;;;13.60;99.90;;;;;;5031359;28;20107;-34
2023/05/28 05:53:59;;;;;;;21.50;7.18;;;13.80;99.90;;;;;;5033398;28;20486;-34
2023/05/28 05:56:26;;;;;;;18.52;6.25;;;13.90;99.90;;;;;;5032468;28;20735;-34
2023/05/28 05:58:54;;;;;;;14.27;6.13;;;14.00;99.90;;;;;;5032757;28;20046;-34
2023/05/28 06:01:21;;;;;;;20.58;7.03;;;14.20;99.90;;;;;;5030928;28;20046;-33
2023/05/28 06:03:48;;;;;;;20.70;6.85;;;14.30;99.90;;;;;;5032327;28;20045;-34
2023/05/28 06:06:15;;;;;;;17.98;5.63;;;14.30;99.90;;;;;;5031848;28;20084;-35
2023/05/28 06:08:41;;;;;;;28.75;7.50;;;14.40;99.90;;;;;;5031124;28;20405;-34
2023/05/28 06:11:08;;;;;;;24.10;7.00;;;14.40;99.90;;;;;;5032105;28;20107;-34
2023/05/28 06:13:36;;;;;;;22.13;6.28;;;14.40;99.90;;;;;;5033292;28;20053;-34
2023/05/28 06:16:04;;;;;;;17.15;5.70;;;14.40;99.90;;;;;;5031263;28;20056;-34
2023/05/28 06:18:31;;;;;;;19.92;7.20;;;14.40;99.90;;;;;;5032006;28;20111;-34
2023/05/28 06:20:58;;;;;;;20.30;6.63;;;14.50;99.90;;;;;;5027700;28;20077;-35
2023/05/28 06:23:25;;;;;;;17.48;6.65;;;14.50;99.90;;;;;;5029862;28;20058;-34
2023/05/28 06:25:52;;;;;;;21.20;6.50;;;14.60;99.90;;;;;;5031673;28;20112;-34
2023/05/28 06:28:19;;;;;;;18.48;6.43;;;14.70;99.90;;;;;;5029978;28;20120;-35
2023/05/28 06:30:46;;;;;;;17.20;6.72;;;14.80;99.90;;;;;;5029776;28;20077;-34
2023/05/28 06:33:14;;;;;;;20.35;6.50;;;14.90;99.90;;;;;;5031243;28;20081;-35
2023/05/28 06:35:40;;;;;;;25.10;7.43;;;15.10;99.90;;;;;;5031507;28;20108;-34
2023/05/28 06:38:07;;;;;;;19.63;6.40;;;15.30;99.90;;;;;;5031506;28;20085;-34
2023/05/28 06:40:34;;;;;;;16.23;5.75;;;15.40;99.90;;;;;;5030987;28;20107;-35
2023/05/28 06:43:01;;;;;;;19.02;6.57;;;15.60;99.90;;;;;;5030475;28;20080;-34
2023/05/28 06:45:28;;;;;;;22.35;6.90;;;15.70;99.90;;;;;;5032675;28;20409;-34
2023/05/28 06:47:54;;;;;;;21.70;6.47;;;15.80;99.90;;;;;;5031776;28;20046;-35
2023/05/28 06:50:23;;;;;;;15.68;6.10;;;16.00;99.90;;;;;;5031000;28;20113;-34
2023/05/28 06:52:49;;;;;;;15.63;6.35;;;16.20;99.90;;;;;;5042743;28;20107;-35
2023/05/28 06:55:16;;;;;;;18.45;6.53;;;16.30;99.90;;;;;;5029956;28;20117;-34
2023/05/28 06:57:44;;;;;;;17.55;6.47;;;16.50;99.90;;;;;;5031433;28;20176;-34
2023/05/28 07:00:15;;;;;;;21.25;6.88;;;16.60;99.90;;;;;;5025469;28;20065;-36
2023/05/28 07:02:41;;;;;;;17.83;6.30;;;16.80;99.90;;;;;;5028400;28;20508;-35
2023/05/28 07:05:09;;;;;;;15.90;5.93;;;16.90;99.90;;;;;;5030756;28;20128;-35
2023/05/28 07:07:38;;;;;;;16.25;6.20;;;17.10;99.90;;;;;;5028261;28;20485;-34
2023/05/28 07:10:05;;;;;;;19.13;6.18;;;17.20;99.90;;;;;;5029155;28;20046;-34
2023/05/28 07:12:32;;;;;;;19.00;5.80;;;17.20;99.90;;;;;;5025014;28;20116;-33
2023/05/28 07:14:59;;;;;;;15.20;5.78;;;17.30;99.90;;;;;;5024915;28;20319;-35
2023/05/28 07:17:25;;;;;;;17.23;6.68;;;17.30;99.90;;;;;;5029704;28;20456;-35
2023/05/28 07:19:52;;;;;;;17.38;5.93;;;17.40;99.90;;;;;;5028824;28;20128;-34
2023/05/28 07:22:19;;;;;;;17.77;6.47;;;17.60;99.90;;;;;;5029771;28;20710;-35
2023/05/28 07:24:47;;;;;;;15.70;6.40;;;17.70;99.90;;;;;;5031102;28;20119;-36
2023/05/28 07:27:14;;;;;;;20.35;6.85;;;17.80;99.90;;;;;;5026385;28;20545;-35
2023/05/28 07:29:41;;;;;;;14.68;6.50;;;17.80;99.90;;;;;;5026512;28;20449;-36
2023/05/28 07:32:07;;;;;;;19.58;6.93;;;17.90;99.90;;;;;;5038620;28;20049;-35
2023/05/28 07:34:34;;;;;;;19.00;6.97;;;18.10;99.90;;;;;;5015348;28;20080;-37
2023/05/28 07:37:01;;;;;;;20.35;6.43;;;18.30;99.90;;;;;;5027390;28;20060;-35
2023/05/28 07:39:28;;;;;;;17.77;7.05;;;18.50;99.90;;;;;;5020513;28;20127;-34
2023/05/28 07:41:56;;;;;;;15.75;6.13;;;18.60;99.90;;;;;;5020677;28;20080;-36
2023/05/28 07:44:23;;;;;;;14.15;6.63;;;18.70;99.90;;;;;;5031089;28;20044;-36
2023/05/28 07:46:49;;;;;;;17.42;6.93;;;18.90;99.20;;;;;;5030791;28;20493;-35
2023/05/28 07:49:16;;;;;;;16.67;6.55;;;19.00;99.00;;;;;;5030174;28;20465;-34
2023/05/28 07:51:43;;;;;;;18.20;7.35;;;19.20;99.00;;;;;;5026100;28;20412;-34
2023/05/28 07:54:10;;;;;;;15.75;6.55;;;19.30;98.10;;;;;;5027911;28;20136;-37
2023/05/28 07:56:37;;;;;;;18.23;7.15;;;19.50;98.20;;;;;;5037989;28;20509;-36
2023/05/28 07:59:06;;;;;;;13.25;6.07;;;19.60;97.80;;;;;;5031168;28;20060;-36
2023/05/28 08:01:34;;;;;;;17.27;7.00;;;19.70;97.70;;;;;;5030579;28;20103;-36
2023/05/28 08:04:01;;;;;;;14.50;7.03;;;19.80;97.70;;;;;;5031770;28;20132;-36
2023/05/28 08:06:27;;;;;;;17.90;7.38;;;20.00;97.70;;;;;;5030013;28;20053;-35
2023/05/28 08:08:55;;;;;;;17.52;7.28;;;20.10;97.00;;;;;;5026769;28;20057;-36
2023/05/28 08:11:22;;;;;;;14.73;6.50;;;20.30;96.50;;;;;;5028937;28;20092;-36
2023/05/28 08:13:50;;;;;;;14.27;6.93;;;20.40;95.70;;;;;;5020690;28;20046;-35
2023/05/28 08:16:18;;;;;;;14.32;6.78;;;20.50;95.00;;;;;;5030409;28;20547;-36
2023/05/28 08:18:45;;;;;;;11.93;6.90;;;20.70;94.00;;;;;;5029897;28;20107;-35
2023/05/28 08:21:12;;;;;;;13.07;6.53;;;20.70;93.80;;;;;;5028882;28;20571;-35
2023/05/28 08:23:39;;;;;;;13.80;6.32;;;20.70;93.80;;;;;;5025317;28;20060;-37
2023/05/28 08:26:06;;;;;;;16.63;7.13;;;20.80;93.90;;;;;;5013635;28;20104;-35
2023/05/28 08:28:32;;;;;;;14.57;6.22;;;21.00;93.50;;;;;;5031536;28;20489;-36
2023/05/28 08:30:59;;;;;;;16.33;7.65;;;21.20;93.10;;;;;;5024495;28;20049;-36
2023/05/28 08:33:27;;;;;;;13.95;6.80;;;21.30;92.30;;;;;;5029246;28;20129;-36
2023/05/28 08:35:54;;;;;;;16.27;7.03;;;21.40;91.90;;;;;;5029849;28;20062;-35
2023/05/28 08:38:21;;;;;;;13.18;6.53;;;21.50;91.80;;;;;;5029141;28;20081;-37
2023/05/28 08:40:50;;;;;;;15.07;6.50;;;21.70;91.70;;;;;;5028453;28;20117;-37
2023/05/28 08:43:17;;;;;;;15.52;6.30;;;21.70;91.20;;;;;;5030918;28;20081;-36
2023/05/28 08:45:44;;;;;;;13.35;6.43;;;21.80;90.50;;;;;;5026851;28;20494;-37
2023/05/28 08:48:10;;;;;;;14.75;6.68;;;21.90;90.10;;;;;;5028871;28;20465;-37
2023/05/28 08:50:39;;;;;;;13.27;8.05;;;21.90;88.10;;;;;;5028110;28;20157;-35
2023/05/28 08:53:07;;;;;;;16.45;6.50;;;21.90;87.20;;;;;;5028839;28;20076;-35
2023/05/28 08:55:33;;;;;;;13.27;6.47;;;22.00;87.40;;;;;;5029263;28;20054;-36
2023/05/28 08:58:00;;;;;;;14.80;6.15;;;22.10;86.10;;;;;;5027808;28;20503;-36
2023/05/28 09:00:27;;;;;;;10.80;6.53;;;22.30;86.10;;;;;;5028149;28;20107;-36
2023/05/28 09:02:54;;;;;;;14.65;6.55;;;22.30;86.30;;;;;;5032184;28;20065;-36
2023/05/28 09:05:22;;;;;;;12.32;6.25;;;22.40;87.00;;;;;;5038297;28;20049;-35
2023/05/28 09:07:50;;;;;;;12.68;6.25;;;22.60;87.40;;;;;;5028087;28;20068;-36
2023/05/28 09:10:17;;;;;;;11.48;5.68;;;22.80;86.40;;;;;;5028939;28;20088;-35
2023/05/28 09:12:58;;;;;;;10.52;5.30;;;23.00;86.90;;;;;;5027050;28;20085;-37
2023/05/28 09:15:24;;;;;;;14.13;5.57;;;23.20;85.50;;;;;;5046187;28;21402;-38
2023/05/28 09:17:51;;;;;;;13.77;5.45;;;23.30;85.30;;;;;;5018594;28;20049;-37
2023/05/28 09:20:18;;;;;;;9.32;5.43;;;23.50;84.10;;;;;;5027566;28;20080;-36
2023/05/28 09:22:45;;;;;;;10.07;5.35;;;23.60;84.10;;;;;;5031853;28;20085;-37
2023/05/28 09:25:14;;;;;;;13.25;5.75;;;23.70;83.80;;;;;;5015149;28;20413;-38
2023/05/28 09:27:41;;;;;;;10.48;5.43;;;23.70;80.70;;;;;;5030326;28;20140;-38
2023/05/28 09:30:09;;;;;;;13.43;6.15;;;23.60;80.50;;;;;;5024147;28;20497;-37
2023/05/28 09:32:35;;;;;;;10.45;5.22;;;23.60;80.50;;;;;;5031012;28;20111;-37
2023/05/28 09:35:03;;;;;;;12.45;5.22;;;23.70;80.80;;;;;;5030915;28;20084;-36
2023/05/28 09:37:31;;;;;;;10.60;4.97;;;23.80;78.80;;;;;;5028754;28;20045;-36
2023/05/28 09:40:02;;;;;;;10.55;5.18;;;23.90;78.70;;;;;;5031380;28;20061;-38
2023/05/28 09:42:38;;;;;;;11.55;5.30;;;24.00;78.40;;;;;;5030467;28;20386;-37
2023/05/28 09:45:06;;;;;;;10.55;4.80;;;24.10;78.10;;;;;;5030252;28;20131;-35
2023/05/28 09:47:33;;;;;;;9.23;4.95;;;24.20;75.50;;;;;;5033006;28;20057;-36
2023/05/28 09:50:00;;;;;;;10.38;5.43;;;24.20;74.50;;;;;;5031519;28;20061;-36
2023/05/28 09:52:27;;;;;;;9.63;5.18;;;24.30;72.90;;;;;;5032538;28;20076;-38
2023/05/28 09:54:55;;;;;;;9.80;5.13;;;24.40;72.30;;;;;;5031447;28;20433;-37
2023/05/28 09:57:25;;;;;;;9.60;5.25;;;24.50;72.30;;;;;;5031412;28;20048;-37
2023/05/28 09:59:55;;;;;;;9.38;5.00;;;24.60;69.40;;;;;;5029238;28;20057;-35
2023/05/28 10:02:25;;;;;;;9.38;5.32;;;24.60;69.70;;;;;;5028115;28;20068;-39
2023/05/28 10:04:53;;;;;;;11.13;5.18;;;24.70;68.80;;;;;;5032322;28;20091;-37
2023/05/28 10:07:20;;;;;;;8.60;4.97;;;24.80;67.70;;;;;;5028219;28;20473;-38
2023/05/28 10:09:47;;;;;;;34.88;24.52;;;24.90;68.90;;;;;;5031476;28;20536;-36
2023/05/28 10:12:17;;;;;;;12.60;5.93;;;25.10;67.50;;;;;;5030240;28;20156;-37
2023/05/28 10:14:44;;;;;;;10.70;5.95;;;25.20;65.70;;;;;;5031578;28;20084;-38
2023/05/28 10:17:12;;;;;;;11.18;5.90;;;25.40;67.20;;;;;;5029238;28;20496;-38
2023/05/28 10:19:39;;;;;;;10.70;5.93;;;25.40;65.00;;;;;;5032195;28;20138;-36
2023/05/28 10:22:06;;;;;;;10.75;5.95;;;25.40;64.40;;;;;;5030277;28;20049;-35
2023/05/28 10:24:33;;;;;;;9.40;5.15;;;25.50;65.30;;;;;;5022443;28;20085;-38
2023/05/28 10:27:00;;;;;;;11.73;5.65;;;25.60;64.60;;;;;;5026657;28;20073;-37
2023/05/28 10:29:27;;;;;;;10.85;6.22;;;25.70;63.30;;;;;;5028992;28;20539;-36
2023/05/28 10:32:00;;;;;;;11.05;5.63;;;25.70;62.80;;;;;;5032193;28;20453;-35
2023/05/28 10:34:32;;;;;;;13.75;6.15;;;25.70;61.40;;;;;;5030713;28;20088;-37
2023/05/28 10:37:01;;;;;;;12.70;6.13;;;25.60;61.40;;;;;;5027864;28;20516;-38
2023/05/28 10:39:27;;;;;;;11.80;5.90;;;25.60;60.50;;;;;;5028660;28;20144;-37
2023/05/28 10:41:54;;;;;;;10.65;5.63;;;25.50;62.10;;;;;;5028791;28;20131;-36
2023/05/28 10:44:21;;;;;;;10.02;4.85;;;25.60;62.60;;;;;;5026110;28;20046;-38
2023/05/28 10:46:48;;;;;;;8.90;5.50;;;25.60;61.50;;;;;;5037894;28;20544;-36
2023/05/28 10:49:16;;;;;;;11.07;5.70;;;25.60;62.10;;;;;;5029945;28;20124;-36
2023/05/28 10:51:57;;;;;;;11.18;5.35;;;25.70;61.40;;;;;;5030565;28;20053;-37
2023/05/28 10:54:27;;;;;;;11.63;5.57;;;25.60;61.30;;;;;;5030063;28;20472;-37
2023/05/28 10:57:07;;;;;;;8.60;5.50;;;25.60;62.40;;;;;;5029568;28;20509;-38
2023/05/28 10:59:58;;;;;;;12.40;5.38;;;25.80;62.20;;;;;;5026629;28;20053;-37
2023/05/28 11:02:26;;;;;;;9.60;5.65;;;26.00;61.80;;;;;;5027879;28;20117;-35
2023/05/28 11:04:55;;;;;;;77.72;55.78;;;26.10;61.80;;;;;;5025853;28;20053;-37
2023/05/28 11:07:24;;;;;;;92.80;64.95;;;26.20;62.20;;;;;;5030984;28;20046;-36
2023/05/28 11:09:51;;;;;;;11.90;8.18;;;26.30;62.30;;;;;;5045695;28;20061;-37
2023/05/28 11:12:20;;;;;;;11.88;8.27;;;26.40;60.10;;;;;;5023622;28;20559;-38
2023/05/28 11:14:46;;;;;;;17.27;7.93;;;26.40;59.90;;;;;;5028607;28;20057;-37
2023/05/28 11:17:13;;;;;;;10.68;6.13;;;26.50;60.20;;;;;;5029792;28;20511;-38
2023/05/28 11:19:42;;;;;;;13.07;7.68;;;26.50;59.30;;;;;;5030690;28;20057;-37
2023/05/28 11:22:09;;;;;;;10.55;6.40;;;26.60;59.30;;;;;;5029381;28;20128;-38
2023/05/28 11:25:04;;;;;;;11.32;7.53;;;26.60;57.30;;;;;;5032693;28;20089;-38
2023/05/28 11:27:32;;;;;;;9.75;6.55;;;26.70;58.40;;;;;;5031461;28;20048;-37
2023/05/28 11:30:00;;;;;;;14.98;7.30;;;26.70;56.70;;;;;;5029314;28;20049;-39
2023/05/28 11:32:27;;;;;;;15.45;6.97;;;26.70;55.50;;;;;;5031163;28;20057;-38
2023/05/28 11:34:56;;;;;;;9.88;6.05;;;26.60;55.60;;;;;;5028433;28;20056;-38
2023/05/28 11:37:26;;;;;;;8.63;5.70;;;26.50;54.40;;;;;;5028964;28;20390;-39
2023/05/28 11:39:54;;;;;;;10.05;5.90;;;26.60;55.20;;;;;;5029896;28;20091;-36
2023/05/28 11:42:22;;;;;;;8.50;6.30;;;26.50;53.90;;;;;;5031007;28;20041;-38
2023/05/28 11:44:50;;;;;;;9.75;5.95;;;26.40;56.10;;;;;;5029746;28;20077;-39
2023/05/28 11:47:17;;;;;;;7.65;6.05;;;26.60;55.60;;;;;;5032225;28;20493;-37
2023/05/28 11:49:44;;;;;;;8.70;5.82;;;26.80;55.50;;;;;;5029896;28;20476;-38
2023/05/28 11:52:11;;;;;;;7.20;5.13;;;26.80;53.30;;;;;;5028495;28;20057;-37
2023/05/28 11:54:40;;;;;;;7.72;5.93;;;26.70;52.20;;;;;;5020160;28;20512;-37
2023/05/28 11:57:07;;;;;;;8.90;6.35;;;26.70;51.30;;;;;;5026507;28;20045;-36
2023/05/28 11:59:35;;;;;;;9.57;5.72;;;26.70;52.40;;;;;;5032248;28;20444;-38
2023/05/28 12:02:12;;;;;;;12.30;6.43;;;26.70;52.80;;;;;;5030878;28;20063;-38
2023/05/28 12:04:39;;;;;;;8.43;5.90;;;26.80;50.70;;;;;;5030381;28;20404;-37
2023/05/28 12:07:06;;;;;;;9.43;5.95;;;26.70;52.30;;;;;;5030620;28;20050;-38
2023/05/28 12:09:32;;;;;;;8.02;6.35;;;26.60;51.50;;;;;;5027915;28;20129;-37
2023/05/28 12:12:06;;;;;;;10.88;6.70;;;26.60;53.00;;;;;;5022661;28;20069;-36
2023/05/28 12:14:35;;;;;;;8.57;6.70;;;26.70;53.20;;;;;;5022816;28;20049;-37
2023/05/28 12:17:06;;;;;;;9.45;6.40;;;26.90;53.30;;;;;;5027354;28;20084;-41
2023/05/28 12:19:33;;;;;;;9.80;6.13;;;27.10;52.30;;;;;;5029914;28;20081;-39
2023/05/28 12:22:00;;;;;;;10.48;6.03;;;27.10;52.40;;;;;;5030197;28;20099;-37
2023/05/28 12:24:27;;;;;;;10.43;6.00;;;27.30;52.50;;;;;;5028821;28;20087;-37
2023/05/28 12:26:54;;;;;;;7.85;5.10;;;27.40;52.10;;;;;;5030688;28;20497;-37
2023/05/28 12:29:21;;;;;;;8.75;5.43;;;27.40;51.40;;;;;;5029302;28;20137;-39
2023/05/28 12:31:58;;;;;;;10.95;6.95;;;27.30;51.60;;;;;;5028822;28;20132;-37
2023/05/28 12:34:24;;;;;;;8.50;4.90;;;27.30;49.70;;;;;;5027117;28;20049;-39
2023/05/28 12:36:51;;;;;;;9.15;4.75;;;27.30;51.70;;;;;;5024626;28;20081;-37
2023/05/28 12:39:18;;;;;;;11.07;4.50;;;27.40;52.00;;;;;;5010416;28;20049;-37
2023/05/28 12:41:45;;;;;;;7.35;4.28;;;27.50;50.70;;;;;;5026492;28;20060;-37